createdAt,value
2023-02-19T00:02:23.997Z,1.67
2023-02-19T00:05:25.523Z,1.50
2023-02-19T00:08:27.117Z,1.70
2023-02-19T00:11:34.564Z,1.48
2023-02-19T00:14:36.155Z,1.60
2023-02-19T00:17:37.731Z,1.80
2023-02-19T00:20:39.270Z,1.67
2023-02-19T00:23:41.003Z,1.63
2023-02-19T00:26:43.661Z,1.70
2023-02-19T00:29:45.295Z,1.77
2023-02-19T00:32:51.696Z,1.80
2023-02-19T00:35:53.248Z,1.90
2023-02-19T00:38:55.299Z,1.70
2023-02-19T00:41:56.854Z,1.70
2023-02-19T00:44:58.482Z,1.63
2023-02-19T00:48:00.043Z,1.70
2023-02-19T00:51:01.615Z,1.63
2023-02-19T00:54:04.176Z,1.67
2023-02-19T00:57:06.431Z,1.75
2023-02-19T01:00:08.757Z,1.70
2023-02-19T01:03:10.482Z,1.80
2023-02-19T01:06:14.880Z,1.90
2023-02-19T01:09:16.521Z,1.77
2023-02-19T01:12:18.125Z,1.50
2023-02-19T01:15:19.728Z,1.70
2023-02-19T01:18:21.289Z,1.60
2023-02-19T01:21:25.550Z,1.80
2023-02-19T01:24:27.170Z,1.60
2023-02-19T01:27:28.895Z,1.80
2023-02-19T01:30:30.543Z,1.70
2023-02-19T01:33:33.422Z,1.50
2023-02-19T01:36:35.173Z,1.90
2023-02-19T01:39:36.752Z,1.70
2023-02-19T01:42:42.963Z,1.50
2023-02-19T01:45:45.715Z,1.67
2023-02-19T01:48:47.509Z,1.60
2023-02-19T01:52:12.718Z,1.70
2023-02-19T01:55:14.593Z,1.80
2023-02-19T01:58:16.704Z,1.75
2023-02-19T02:01:18.414Z,1.70
2023-02-19T02:04:20.019Z,1.63
2023-02-19T02:07:41.610Z,1.80
2023-02-19T02:10:43.672Z,1.75
2023-02-19T02:13:46.165Z,1.92
2023-02-19T02:17:09.107Z,1.80
2023-02-19T02:20:29.060Z,1.80
2023-02-19T02:24:02.093Z,1.80
2023-02-19T02:27:35.597Z,1.80
2023-02-19T02:30:46.305Z,1.73
2023-02-19T02:33:59.296Z,1.77
2023-02-19T02:37:03.560Z,2.00
2023-02-19T02:40:07.835Z,2.17
2023-02-19T02:43:10.318Z,1.90
2023-02-19T02:46:15.576Z,1.80
2023-02-19T02:49:24.537Z,1.90
2023-02-19T02:52:46.829Z,1.98
2023-02-19T02:55:52.103Z,2.10
2023-02-19T02:58:57.218Z,2.08
2023-02-19T03:02:14.770Z,1.90
2023-02-19T03:05:41.387Z,1.83
2023-02-19T03:08:56.124Z,1.98
2023-02-19T03:12:22.369Z,1.83
2023-02-19T03:15:48.854Z,2.13
2023-02-19T03:19:13.889Z,2.20
2023-02-19T03:22:26.345Z,2.17
2023-02-19T03:25:52.908Z,2.25
2023-02-19T03:29:23.675Z,2.43
2023-02-19T03:32:38.230Z,2.13
2023-02-19T03:35:45.612Z,2.20
2023-02-19T03:39:00.886Z,2.00
2023-02-19T03:42:18.293Z,2.20
2023-02-19T03:45:43.186Z,2.28
2023-02-19T03:48:52.264Z,2.40
2023-02-19T03:52:23.420Z,2.15
2023-02-19T03:55:30.897Z,2.40
2023-02-19T03:58:49.233Z,2.10
2023-02-19T04:01:56.006Z,2.37
2023-02-19T04:05:14.019Z,2.20
2023-02-19T04:08:19.660Z,2.22
2023-02-19T04:11:29.075Z,2.40
2023-02-19T04:14:44.179Z,2.30
2023-02-19T04:17:52.287Z,2.28
2023-02-19T04:20:54.663Z,2.40
2023-02-19T04:24:03.192Z,2.10
2023-02-19T04:27:06.996Z,2.00
2023-02-19T04:30:11.488Z,2.20
2023-02-19T04:33:13.835Z,2.43
2023-02-19T04:36:15.450Z,2.10
2023-02-19T04:39:17.562Z,2.33
2023-02-19T04:42:19.589Z,2.27
2023-02-19T04:45:21.617Z,2.15
2023-02-19T04:48:23.216Z,2.10
2023-02-19T04:51:25.119Z,2.17
2023-02-19T04:54:26.800Z,2.08
2023-02-19T04:57:28.784Z,2.40
2023-02-19T05:00:31.121Z,2.03
2023-02-19T05:03:35.714Z,1.90
2023-02-19T05:06:37.777Z,2.05
2023-02-19T05:09:39.485Z,2.20
2023-02-19T05:12:41.136Z,2.33
2023-02-19T05:15:43.238Z,2.20
2023-02-19T05:18:46.829Z,2.42
2023-02-19T05:21:49.094Z,2.28
2023-02-19T05:24:51.178Z,2.17
2023-02-19T05:28:12.911Z,2.25
2023-02-19T05:31:15.079Z,1.95
2023-02-19T05:34:17.187Z,2.37
2023-02-19T05:37:19.200Z,2.20
2023-02-19T05:40:22.220Z,2.13
2023-02-19T05:43:24.202Z,2.23
2023-02-19T05:46:29.824Z,2.30
2023-02-19T05:49:32.000Z,2.25
2023-02-19T05:52:33.998Z,2.35
2023-02-19T05:55:36.640Z,2.40
2023-02-19T05:58:38.279Z,2.20
2023-02-19T06:01:40.346Z,2.30
2023-02-19T06:04:42.325Z,2.27
2023-02-19T06:07:44.480Z,2.50
2023-02-19T06:10:46.482Z,2.15
2023-02-19T06:13:54.218Z,2.30
2023-02-19T06:16:56.356Z,2.30
2023-02-19T06:19:57.978Z,2.50
2023-02-19T06:22:59.668Z,2.60
2023-02-19T06:26:20.265Z,2.17
2023-02-19T06:29:22.418Z,2.40
2023-02-19T06:32:24.131Z,2.60
2023-02-19T06:35:26.282Z,2.83
2023-02-19T06:38:28.742Z,2.60
2023-02-19T06:41:32.060Z,2.40
2023-02-19T06:44:34.200Z,2.30
2023-02-19T06:47:35.826Z,2.70
2023-02-19T06:50:37.494Z,2.50
2023-02-19T06:53:40.333Z,2.67
2023-02-19T06:56:42.623Z,3.90
2023-02-19T06:59:44.557Z,3.75
2023-02-19T07:02:47.032Z,3.15
2023-02-19T07:05:49.570Z,3.30
2023-02-19T07:08:54.125Z,3.80
2023-02-19T07:11:55.888Z,3.67
2023-02-19T07:15:00.974Z,3.43
2023-02-19T07:18:05.295Z,3.20
2023-02-19T07:21:10.837Z,3.30
2023-02-19T07:24:12.864Z,3.20
2023-02-19T07:27:14.464Z,3.03
2023-02-19T07:30:16.599Z,3.10
2023-02-19T07:33:19.108Z,3.10
2023-02-19T07:36:23.718Z,3.60
2023-02-19T07:39:25.285Z,3.60
2023-02-19T07:42:26.953Z,3.35
2023-02-19T07:45:29.074Z,3.37
2023-02-19T07:48:31.828Z,3.30
2023-02-19T07:51:34.065Z,3.25
2023-02-19T07:54:36.224Z,3.40
2023-02-19T07:57:38.302Z,3.20
2023-02-19T08:00:40.364Z,3.40
2023-02-19T08:03:43.373Z,3.35
2023-02-19T08:06:45.628Z,3.40
2023-02-19T08:10:07.169Z,3.30
2023-02-19T08:13:19.951Z,3.15
2023-02-19T08:16:36.814Z,3.30
2023-02-19T08:19:39.781Z,3.17
2023-02-19T08:22:41.840Z,3.30
2023-02-19T08:25:44.224Z,2.80
2023-02-19T08:28:46.492Z,3.08
2023-02-19T08:31:48.628Z,3.28
2023-02-19T08:34:50.657Z,3.17
2023-02-19T08:37:56.974Z,2.73
2023-02-19T08:40:59.079Z,2.50
2023-02-19T08:44:01.237Z,2.20
2023-02-19T08:47:05.043Z,1.57
2023-02-19T08:50:08.759Z,1.20
2023-02-19T08:53:10.440Z,1.42
2023-02-19T08:56:15.037Z,1.38
2023-02-19T08:59:17.055Z,1.10
2023-02-19T09:02:18.666Z,0.77
2023-02-19T09:05:21.017Z,1.00
2023-02-19T09:08:23.107Z,0.97
2023-02-19T09:11:25.488Z,0.90
2023-02-19T09:14:27.529Z,0.90
2023-02-19T09:17:29.136Z,0.70
2023-02-19T09:20:31.289Z,0.90
2023-02-19T09:23:35.428Z,0.80
2023-02-19T09:26:38.668Z,0.93
2023-02-19T09:29:40.379Z,0.80
2023-02-19T09:32:42.426Z,1.17
2023-02-19T09:35:44.433Z,1.00
2023-02-19T09:38:46.191Z,1.03
2023-02-19T09:41:51.910Z,0.98
2023-02-19T09:44:57.509Z,0.90
2023-02-19T09:47:59.220Z,0.90
2023-02-19T09:51:02.620Z,1.00
2023-02-19T09:54:09.883Z,1.00
2023-02-19T09:57:20.689Z,1.00
2023-02-19T10:00:30.508Z,1.10
2023-02-19T10:03:41.920Z,0.75
2023-02-19T10:06:44.103Z,0.77
2023-02-19T10:09:52.529Z,0.90
2023-02-19T10:13:00.825Z,0.75
2023-02-19T10:16:05.584Z,0.70
2023-02-19T10:19:15.933Z,0.80
2023-02-19T10:22:19.271Z,0.80
2023-02-19T10:25:20.976Z,0.80
2023-02-19T10:28:30.419Z,0.70
2023-02-19T10:31:34.661Z,0.80
2023-02-19T10:34:36.811Z,0.88
2023-02-19T10:37:49.732Z,0.80
2023-02-19T10:41:02.096Z,0.90
2023-02-19T10:44:16.424Z,0.88
2023-02-19T10:47:23.338Z,0.60
2023-02-19T10:50:32.731Z,0.80
2023-02-19T10:53:48.106Z,0.60
2023-02-19T10:56:50.273Z,0.50
2023-02-19T10:59:57.608Z,0.77
2023-02-19T11:03:21.441Z,0.50
2023-02-19T11:06:27.038Z,1.10
2023-02-19T11:09:37.102Z,0.70
2023-02-19T11:12:39.244Z,0.80
2023-02-19T11:15:41.702Z,1.00
2023-02-19T11:18:45.124Z,0.80
2023-02-19T11:21:47.914Z,1.47
2023-02-19T11:24:55.896Z,0.80
2023-02-19T11:28:23.812Z,0.70
2023-02-19T11:31:33.556Z,0.70
2023-02-19T11:34:35.903Z,0.80
2023-02-19T11:37:54.344Z,0.70
2023-02-19T11:41:15.100Z,0.80
2023-02-19T11:44:30.681Z,0.73
2023-02-19T11:47:50.526Z,0.80
2023-02-19T11:51:10.105Z,1.08
2023-02-19T11:54:48.782Z,0.80
2023-02-19T11:58:04.788Z,1.55
2023-02-19T12:01:44.040Z,0.90
2023-02-19T12:04:48.645Z,0.90
2023-02-19T12:08:13.731Z,0.80
2023-02-19T12:11:38.709Z,0.90
2023-02-19T12:15:21.145Z,0.70
2023-02-19T12:18:41.130Z,0.70
2023-02-19T12:21:51.422Z,0.90
2023-02-19T12:24:52.936Z,0.80
2023-02-19T12:28:09.660Z,0.70
2023-02-19T12:31:53.542Z,0.80
2023-02-19T12:34:55.166Z,0.90
2023-02-19T12:38:15.639Z,0.90
2023-02-19T12:41:35.788Z,0.95
2023-02-19T12:44:47.493Z,1.23
2023-02-19T12:48:03.698Z,0.98
2023-02-19T12:51:12.797Z,0.93
2023-02-19T12:54:23.839Z,0.93
2023-02-19T12:57:31.611Z,1.20
2023-02-19T13:00:33.138Z,1.40
2023-02-19T13:04:14.301Z,2.40
2023-02-19T13:07:41.790Z,3.45
2023-02-19T13:10:49.078Z,2.30
2023-02-19T13:13:55.689Z,1.48
2023-02-19T13:17:17.184Z,1.25
2023-02-19T13:20:27.956Z,1.50
2023-02-19T13:27:40.076Z,1.60
2023-02-19T13:30:52.956Z,1.50
2023-02-19T13:34:18.038Z,1.33
2023-02-19T13:37:20.676Z,1.00
2023-02-19T13:40:31.515Z,1.13
2023-02-19T13:43:38.941Z,2.28
2023-02-19T13:46:46.674Z,1.30
2023-02-19T13:49:52.232Z,0.93
2023-02-19T13:52:55.648Z,1.00
2023-02-19T13:55:57.222Z,1.00
2023-02-19T13:59:18.475Z,0.80
2023-02-19T14:02:23.064Z,0.70
2023-02-19T14:05:58.802Z,1.60
2023-02-19T14:09:00.619Z,1.35
2023-02-19T14:12:02.176Z,1.00
2023-02-19T14:15:44.179Z,1.00
2023-02-19T14:18:46.754Z,0.90
2023-02-19T14:21:48.736Z,1.05
2023-02-19T14:24:53.581Z,0.90
2023-02-19T14:28:24.141Z,1.00
2023-02-19T14:31:35.555Z,1.00
2023-02-19T14:34:37.352Z,3.08
2023-02-19T14:37:39.053Z,1.92
2023-02-19T14:40:42.232Z,2.20
2023-02-19T14:43:47.461Z,2.22
2023-02-19T14:46:56.788Z,2.00
2023-02-19T14:50:02.481Z,1.20
2023-02-19T14:53:07.274Z,4.70
2023-02-19T14:56:21.433Z,2.15
2023-02-19T14:59:27.611Z,1.67
2023-02-19T15:02:32.220Z,0.90
2023-02-19T15:05:36.798Z,1.30
2023-02-19T15:08:43.733Z,1.40
2023-02-19T15:11:45.395Z,1.27
2023-02-19T15:14:49.863Z,1.40
2023-02-19T15:17:53.664Z,1.10
2023-02-19T15:21:02.478Z,1.07
2023-02-19T15:24:06.090Z,1.00
2023-02-19T15:27:18.385Z,1.00
2023-02-19T15:30:26.697Z,1.97
2023-02-19T15:33:28.541Z,1.45
2023-02-19T15:36:32.404Z,1.15
2023-02-19T15:39:43.991Z,1.20
2023-02-19T15:42:47.191Z,1.20
2023-02-19T15:45:50.291Z,1.40
2023-02-19T15:48:56.775Z,1.40
2023-02-19T15:52:05.719Z,1.47
2023-02-19T15:55:27.084Z,1.60
2023-02-19T15:58:36.312Z,1.30
2023-02-19T16:01:39.004Z,1.30
2023-02-19T16:04:43.095Z,1.20
2023-02-19T16:07:47.370Z,1.30
2023-02-19T16:10:57.271Z,1.75
2023-02-19T16:14:19.223Z,1.70
2023-02-19T16:17:25.103Z,1.77
2023-02-19T16:20:28.493Z,1.60
2023-02-19T16:23:31.293Z,1.90
2023-02-19T16:26:44.680Z,3.00
2023-02-19T16:29:51.067Z,4.30
2023-02-19T16:33:21.824Z,3.30
2023-02-19T16:36:35.685Z,3.22
2023-02-19T16:39:40.421Z,2.60
2023-02-19T16:42:51.242Z,3.30
2023-02-19T16:45:53.445Z,2.80
2023-02-19T16:48:55.046Z,3.10
2023-02-19T16:51:59.399Z,2.85
2023-02-19T16:55:01.782Z,3.17
2023-02-19T16:58:03.461Z,3.30
2023-02-19T17:01:05.207Z,5.00
2023-02-19T17:04:09.597Z,4.27
2023-02-19T17:07:17.155Z,2.58
2023-02-19T17:10:23.491Z,3.25
2023-02-19T17:13:25.104Z,2.70
2023-02-19T17:16:29.600Z,2.40
2023-02-19T17:19:31.324Z,2.20
2023-02-19T17:22:33.631Z,2.22
2023-02-19T17:25:35.270Z,2.67
2023-02-19T17:28:36.853Z,2.10
2023-02-19T17:31:38.453Z,2.30
2023-02-19T17:34:40.183Z,1.80
2023-02-19T17:37:41.792Z,1.95
2023-02-19T17:40:45.049Z,2.22
2023-02-19T17:43:47.582Z,2.80
2023-02-19T17:46:49.445Z,2.60
2023-02-19T17:49:52.008Z,2.83
2023-02-19T17:52:53.599Z,2.83
2023-02-19T17:55:55.185Z,2.53
2023-02-19T17:58:59.953Z,1.80
2023-02-19T18:02:03.207Z,1.70
2023-02-19T18:05:05.044Z,1.80
2023-02-19T18:08:06.626Z,1.60
2023-02-19T18:11:08.488Z,4.30
2023-02-19T18:14:10.037Z,2.47
2023-02-19T18:17:11.655Z,1.60
2023-02-19T18:20:16.191Z,1.50
2023-02-19T18:23:17.883Z,1.80
2023-02-19T18:26:21.505Z,1.70
2023-02-19T18:29:24.593Z,1.80
2023-02-19T18:32:26.307Z,2.20
2023-02-19T18:35:28.088Z,2.20
2023-02-19T18:38:29.877Z,2.83
2023-02-19T18:41:31.409Z,2.80
2023-02-19T18:44:36.861Z,2.00
2023-02-19T18:47:38.515Z,1.70
2023-02-19T18:50:40.194Z,1.88
2023-02-19T18:53:44.596Z,3.25
2023-02-19T18:56:46.950Z,2.40
2023-02-19T18:59:48.869Z,2.10
2023-02-19T19:02:51.414Z,2.38
2023-02-19T19:05:53.334Z,1.80
2023-02-19T19:08:54.963Z,2.00
2023-02-19T19:11:56.509Z,2.75
2023-02-19T19:14:58.067Z,1.70
2023-02-19T19:18:00.011Z,2.22
2023-02-19T19:21:03.542Z,1.90
2023-02-19T19:24:05.625Z,2.45
2023-02-19T19:27:07.234Z,3.23
2023-02-19T19:30:09.420Z,3.47
2023-02-19T19:33:12.105Z,2.95
2023-02-19T19:36:20.236Z,3.93
2023-02-19T19:39:21.860Z,2.40
2023-02-19T19:42:24.341Z,3.60
2023-02-19T19:45:25.974Z,5.18
2023-02-19T19:48:27.784Z,5.50
2023-02-19T19:51:33.877Z,5.35
2023-02-19T19:54:35.600Z,3.80
2023-02-19T19:57:38.534Z,3.90
2023-02-19T20:00:43.360Z,3.40
2023-02-19T20:03:44.895Z,3.45
2023-02-19T20:06:46.866Z,3.73
2023-02-19T20:09:50.761Z,2.80
2023-02-19T20:12:52.597Z,2.05
2023-02-19T20:15:54.265Z,2.40
2023-02-19T20:18:55.944Z,2.00
2023-02-19T20:21:57.628Z,2.80
2023-02-19T20:24:59.361Z,2.50
2023-02-19T20:28:01.419Z,2.17
2023-02-19T20:31:03.254Z,2.22
2023-02-19T20:34:05.455Z,2.20
2023-02-19T20:37:07.586Z,2.00
2023-02-19T20:40:11.841Z,2.10
2023-02-19T20:43:13.506Z,2.30
2023-02-19T20:46:15.715Z,1.80
2023-02-19T20:49:19.592Z,2.30
2023-02-19T20:52:21.807Z,2.05
2023-02-19T20:55:24.933Z,2.00
2023-02-19T20:58:26.950Z,2.10
2023-02-19T21:01:29.065Z,2.05
2023-02-19T21:04:30.798Z,2.03
2023-02-19T21:07:32.407Z,1.80
2023-02-19T21:10:34.805Z,2.00
2023-02-19T21:13:36.692Z,1.70
2023-02-19T21:16:38.317Z,2.08
2023-02-19T21:19:40.164Z,1.90
2023-02-19T21:22:42.207Z,1.90
2023-02-19T21:25:43.875Z,1.80
2023-02-19T21:28:50.668Z,1.70
2023-02-19T21:31:55.917Z,1.80
2023-02-19T21:34:57.671Z,1.67
2023-02-19T21:37:59.326Z,2.10
2023-02-19T21:41:00.908Z,1.80
2023-02-19T21:44:03.667Z,1.80
2023-02-19T21:47:05.328Z,1.70
2023-02-19T21:50:07.474Z,1.90
2023-02-19T21:53:09.054Z,1.70
2023-02-19T21:56:10.896Z,1.60
2023-02-19T21:59:13.043Z,1.63
2023-02-19T22:02:15.163Z,1.48
2023-02-19T22:05:16.838Z,1.63
2023-02-19T22:08:18.699Z,1.77
2023-02-19T22:11:20.651Z,1.42
2023-02-19T22:14:22.256Z,1.77
2023-02-19T22:17:23.961Z,1.67
2023-02-19T22:20:25.527Z,1.83
2023-02-19T22:23:27.123Z,1.70
2023-02-19T22:26:30.500Z,1.75
2023-02-19T22:29:32.133Z,1.50
2023-02-19T22:32:33.827Z,2.13
2023-02-19T22:35:35.563Z,1.90
2023-02-19T22:38:37.165Z,1.93
2023-02-19T22:41:42.385Z,1.80
2023-02-19T22:44:44.048Z,1.80
2023-02-19T22:47:46.987Z,1.80
2023-02-19T22:50:48.868Z,1.70
2023-02-19T22:53:53.425Z,1.88
2023-02-19T22:56:56.135Z,1.60
2023-02-19T22:59:57.667Z,1.63
2023-02-19T23:02:59.561Z,1.70
2023-02-19T23:06:04.778Z,1.77
2023-02-19T23:09:10.946Z,1.50
2023-02-19T23:12:12.783Z,1.95
2023-02-19T23:15:14.436Z,1.70
2023-02-19T23:18:16.013Z,1.75
2023-02-19T23:21:19.204Z,1.73
2023-02-19T23:24:20.803Z,2.30
2023-02-19T23:27:24.212Z,1.83
2023-02-19T23:30:26.186Z,1.53
2023-02-19T23:33:27.979Z,1.60
2023-02-19T23:36:29.533Z,1.88
2023-02-19T23:39:31.292Z,1.90
2023-02-19T23:42:32.948Z,1.90
2023-02-19T23:45:34.829Z,1.65
2023-02-19T23:48:36.425Z,1.70
2023-02-19T23:51:38.069Z,1.85
2023-02-19T23:54:39.656Z,1.80
2023-02-19T23:57:41.693Z,1.60
